sensor_id;sensor_type;location;lat;lon;timestamp;pressure;altitude;pressure_sealevel;temperature;humidity
77299;BME280;66361;52.034;20.656;2023-09-12T00:01:14;99572.19;;;15.02;100.00
77299;BME280;66361;52.034;20.656;2023-09-12T00:05:18;99572.84;;;15.04;100.00
77299;BME280;66361;52.034;20.656;2023-09-12T00:09:21;99579.31;;;15.01;100.00
77299;BME280;66361;52.034;20.656;2023-09-12T00:13:24;99563.50;;;14.90;100.00
77299;BME280;66361;52.034;20.656;2023-09-12T00:17:27;99571.31;;;14.92;100.00
77299;BME280;66361;52.034;20.656;2023-09-12T00:21:32;99571.59;;;14.89;100.00
77299;BME280;66361;52.034;20.656;2023-09-12T00:25:35;99568.47;;;14.84;100.00
77299;BME280;66361;52.034;20.656;2023-09-12T00:29:37;99562.50;;;14.82;100.00
77299;BME280;66361;52.034;20.656;2023-09-12T00:33:40;99567.22;;;14.78;100.00
77299;BME280;66361;52.034;20.656;2023-09-12T00:37:47;99565.41;;;14.79;100.00
77299;BME280;66361;52.034;20.656;2023-09-12T00:41:50;99567.63;;;14.74;100.00
77299;BME280;66361;52.034;20.656;2023-09-12T00:45:52;99568.88;;;14.70;100.00
77299;BME280;66361;52.034;20.656;2023-09-12T00:49:56;99567.06;;;14.70;100.00
77299;BME280;66361;52.034;20.656;2023-09-12T00:54:01;99565.38;;;14.69;100.00
77299;BME280;66361;52.034;20.656;2023-09-12T00:58:07;99564.53;;;14.69;100.00
77299;BME280;66361;52.034;20.656;2023-09-12T01:02:14;99554.63;;;14.71;100.00
77299;BME280;66361;52.034;20.656;2023-09-12T01:06:19;99556.84;;;14.66;100.00
77299;BME280;66361;52.034;20.656;2023-09-12T01:10:24;99556.44;;;14.70;100.00
77299;BME280;66361;52.034;20.656;2023-09-12T01:14:28;99551.41;;;14.67;100.00
77299;BME280;66361;52.034;20.656;2023-09-12T01:18:31;99549.72;;;14.66;100.00
77299;BME280;66361;52.034;20.656;2023-09-12T01:22:46;99554.19;;;14.66;100.00
77299;BME280;66361;52.034;20.656;2023-09-12T01:27:13;99557.69;;;14.66;100.00
77299;BME280;66361;52.034;20.656;2023-09-12T01:31:17;99561.19;;;14.76;100.00
77299;BME280;66361;52.034;20.656;2023-09-12T01:35:22;99562.19;;;14.75;100.00
77299;BME280;66361;52.034;20.656;2023-09-12T01:39:25;99566.94;;;14.72;100.00
77299;BME280;66361;52.034;20.656;2023-09-12T01:43:31;99566.50;;;14.67;100.00
77299;BME280;66361;52.034;20.656;2023-09-12T01:47:35;99567.63;;;14.64;100.00
77299;BME280;66361;52.034;20.656;2023-09-12T01:51:42;99565.66;;;14.57;100.00
77299;BME280;66361;52.034;20.656;2023-09-12T01:55:46;99565.22;;;14.51;100.00
77299;BME280;66361;52.034;20.656;2023-09-12T01:59:51;99569.09;;;14.47;100.00
77299;BME280;66361;52.034;20.656;2023-09-12T02:03:55;99568.41;;;14.45;100.00
77299;BME280;66361;52.034;20.656;2023-09-12T02:07:58;99573.00;;;14.43;100.00
77299;BME280;66361;52.034;20.656;2023-09-12T02:12:02;99569.94;;;14.38;100.00
77299;BME280;66361;52.034;20.656;2023-09-12T02:16:06;99562.78;;;14.39;100.00
77299;BME280;66361;52.034;20.656;2023-09-12T02:20:10;99560.41;;;14.36;100.00
77299;BME280;66361;52.034;20.656;2023-09-12T02:24:14;99572.13;;;14.33;100.00
77299;BME280;66361;52.034;20.656;2023-09-12T02:28:17;99564.88;;;14.35;100.00
77299;BME280;66361;52.034;20.656;2023-09-12T02:32:22;99564.75;;;14.37;100.00
77299;BME280;66361;52.034;20.656;2023-09-12T02:36:25;99558.03;;;14.33;100.00
77299;BME280;66361;52.034;20.656;2023-09-12T02:40:29;99566.53;;;14.27;100.00
77299;BME280;66361;52.034;20.656;2023-09-12T02:44:32;99574.88;;;14.22;100.00
77299;BME280;66361;52.034;20.656;2023-09-12T02:48:37;99575.56;;;14.15;100.00
77299;BME280;66361;52.034;20.656;2023-09-12T02:52:41;99568.06;;;14.08;100.00
77299;BME280;66361;52.034;20.656;2023-09-12T02:56:44;99569.66;;;14.11;100.00
77299;BME280;66361;52.034;20.656;2023-09-12T03:00:47;99569.19;;;14.06;100.00
77299;BME280;66361;52.034;20.656;2023-09-12T03:04:53;99564.28;;;14.01;100.00
77299;BME280;66361;52.034;20.656;2023-09-12T03:08:56;99561.19;;;13.96;100.00
77299;BME280;66361;52.034;20.656;2023-09-12T03:12:59;99556.97;;;13.94;100.00
77299;BME280;66361;52.034;20.656;2023-09-12T03:17:03;99560.03;;;13.89;100.00
77299;BME280;66361;52.034;20.656;2023-09-12T03:21:09;99564.34;;;13.90;100.00
77299;BME280;66361;52.034;20.656;2023-09-12T03:25:12;99565.59;;;13.86;100.00
77299;BME280;66361;52.034;20.656;2023-09-12T03:29:15;99565.72;;;13.85;100.00
77299;BME280;66361;52.034;20.656;2023-09-12T03:33:18;99566.56;;;13.85;100.00
77299;BME280;66361;52.034;20.656;2023-09-12T03:37:23;99570.31;;;13.83;100.00
77299;BME280;66361;52.034;20.656;2023-09-12T03:41:28;99567.16;;;13.89;100.00
77299;BME280;66361;52.034;20.656;2023-09-12T03:45:32;99574.13;;;13.90;100.00
77299;BME280;66361;52.034;20.656;2023-09-12T03:49:35;99571.88;;;13.85;100.00
77299;BME280;66361;52.034;20.656;2023-09-12T03:53:39;99570.56;;;13.80;100.00
77299;BME280;66361;52.034;20.656;2023-09-12T03:57:43;99568.47;;;13.74;100.00
77299;BME280;66361;52.034;20.656;2023-09-12T04:01:45;99572.06;;;13.73;100.00
77299;BME280;66361;52.034;20.656;2023-09-12T04:05:49;99571.22;;;13.72;100.00
77299;BME280;66361;52.034;20.656;2023-09-12T04:09:54;99568.72;;;13.71;100.00
77299;BME280;66361;52.034;20.656;2023-09-12T04:13:57;99583.53;;;13.73;100.00
77299;BME280;66361;52.034;20.656;2023-09-12T04:18:00;99585.78;;;13.78;100.00
77299;BME280;66361;52.034;20.656;2023-09-12T04:22:04;99584.41;;;13.83;100.00
77299;BME280;66361;52.034;20.656;2023-09-12T04:26:08;99582.22;;;13.88;100.00
77299;BME280;66361;52.034;20.656;2023-09-12T04:30:12;99578.75;;;13.97;100.00
77299;BME280;66361;52.034;20.656;2023-09-12T04:34:15;99572.56;;;14.08;100.00
77299;BME280;66361;52.034;20.656;2023-09-12T04:38:18;99584.53;;;14.23;100.00
77299;BME280;66361;52.034;20.656;2023-09-12T04:42:23;99580.97;;;14.43;100.00
77299;BME280;66361;52.034;20.656;2023-09-12T04:46:27;99577.81;;;14.69;100.00
77299;BME280;66361;52.034;20.656;2023-09-12T04:50:30;99589.91;;;14.92;100.00
77299;BME280;66361;52.034;20.656;2023-09-12T04:54:33;99578.47;;;15.11;100.00
77299;BME280;66361;52.034;20.656;2023-09-12T04:58:40;99576.78;;;15.29;100.00
77299;BME280;66361;52.034;20.656;2023-09-12T05:02:43;99580.72;;;15.44;100.00
77299;BME280;66361;52.034;20.656;2023-09-12T05:06:48;99577.75;;;15.66;100.00
77299;BME280;66361;52.034;20.656;2023-09-12T05:10:51;99586.44;;;15.87;100.00
77299;BME280;66361;52.034;20.656;2023-09-12T05:14:56;99591.78;;;16.15;100.00
77299;BME280;66361;52.034;20.656;2023-09-12T05:18:59;99595.63;;;16.49;100.00
77299;BME280;66361;52.034;20.656;2023-09-12T05:23:02;99594.16;;;17.09;100.00
77299;BME280;66361;52.034;20.656;2023-09-12T05:27:05;99596.88;;;18.39;99.36
77299;BME280;66361;52.034;20.656;2023-09-12T05:31:10;99595.38;;;20.10;90.77
77299;BME280;66361;52.034;20.656;2023-09-12T05:35:13;99595.88;;;21.38;81.73
77299;BME280;66361;52.034;20.656;2023-09-12T05:39:23;99598.63;;;22.57;77.00
77299;BME280;66361;52.034;20.656;2023-09-12T05:43:26;99595.91;;;23.79;70.82
77299;BME280;66361;52.034;20.656;2023-09-12T05:47:30;99604.34;;;24.94;63.86
77299;BME280;66361;52.034;20.656;2023-09-12T05:51:33;99596.88;;;25.76;62.68
77299;BME280;66361;52.034;20.656;2023-09-12T05:55:36;99614.97;;;26.55;58.20
77299;BME280;66361;52.034;20.656;2023-09-12T05:59:39;99614.31;;;27.17;56.96
77299;BME280;66361;52.034;20.656;2023-09-12T06:03:46;99612.13;;;28.01;54.42
77299;BME280;66361;52.034;20.656;2023-09-12T06:07:52;99617.34;;;28.70;52.50
77299;BME280;66361;52.034;20.656;2023-09-12T06:11:55;99627.34;;;29.24;51.24
77299;BME280;66361;52.034;20.656;2023-09-12T06:15:58;99618.59;;;29.82;50.36
77299;BME280;66361;52.034;20.656;2023-09-12T06:20:03;99624.56;;;30.84;47.57
77299;BME280;66361;52.034;20.656;2023-09-12T06:24:09;99633.50;;;31.76;44.88
77299;BME280;66361;52.034;20.656;2023-09-12T06:28:24;99625.94;;;32.11;44.89
77299;BME280;66361;52.034;20.656;2023-09-12T06:32:27;99630.19;;;32.57;44.38
77299;BME280;66361;52.034;20.656;2023-09-12T06:36:32;99622.38;;;33.04;45.22
77299;BME280;66361;52.034;20.656;2023-09-12T06:40:35;99635.50;;;33.24;42.97
77299;BME280;66361;52.034;20.656;2023-09-12T06:44:38;99635.50;;;34.04;40.94
77299;BME280;66361;52.034;20.656;2023-09-12T06:48:41;99644.25;;;34.33;40.00
77299;BME280;66361;52.034;20.656;2023-09-12T06:52:46;99644.91;;;34.92;37.78
77299;BME280;66361;52.034;20.656;2023-09-12T06:56:49;99646.53;;;35.55;35.73
77299;BME280;66361;52.034;20.656;2023-09-12T07:00:52;99643.25;;;35.53;33.19
77299;BME280;66361;52.034;20.656;2023-09-12T07:04:55;99647.75;;;36.35;33.44
77299;BME280;66361;52.034;20.656;2023-09-12T07:09:02;99652.13;;;36.41;34.76
77299;BME280;66361;52.034;20.656;2023-09-12T07:13:06;99651.31;;;36.51;33.93
77299;BME280;66361;52.034;20.656;2023-09-12T07:17:09;99650.66;;;35.53;35.56
77299;BME280;66361;52.034;20.656;2023-09-12T07:21:12;99654.41;;;35.26;36.86
77299;BME280;66361;52.034;20.656;2023-09-12T07:25:18;99655.72;;;36.21;35.82
77299;BME280;66361;52.034;20.656;2023-09-12T07:29:22;99660.38;;;36.36;33.90
77299;BME280;66361;52.034;20.656;2023-09-12T07:33:25;99655.06;;;36.95;32.48
77299;BME280;66361;52.034;20.656;2023-09-12T07:37:30;99655.03;;;37.64;33.79
77299;BME280;66361;52.034;20.656;2023-09-12T07:41:34;99651.38;;;38.99;29.62
77299;BME280;66361;52.034;20.656;2023-09-12T07:45:39;99657.78;;;38.71;28.88
77299;BME280;66361;52.034;20.656;2023-09-12T07:49:42;99650.31;;;39.43;29.49
77299;BME280;66361;52.034;20.656;2023-09-12T07:53:45;99658.63;;;39.38;27.92
77299;BME280;66361;52.034;20.656;2023-09-12T07:57:49;99647.09;;;39.12;28.71
77299;BME280;66361;52.034;20.656;2023-09-12T08:01:52;99644.63;;;38.87;28.68
77299;BME280;66361;52.034;20.656;2023-09-12T08:05:55;99646.66;;;38.47;28.13
77299;BME280;66361;52.034;20.656;2023-09-12T08:09:59;99645.09;;;39.36;27.97
77299;BME280;66361;52.034;20.656;2023-09-12T08:14:04;99643.25;;;39.32;27.75
77299;BME280;66361;52.034;20.656;2023-09-12T08:18:07;99651.75;;;39.35;28.34
77299;BME280;66361;52.034;20.656;2023-09-12T08:22:15;99657.16;;;39.83;25.73
77299;BME280;66361;52.034;20.656;2023-09-12T08:26:19;99653.94;;;39.38;27.58
77299;BME280;66361;52.034;20.656;2023-09-12T08:30:23;99656.78;;;39.52;25.29
77299;BME280;66361;52.034;20.656;2023-09-12T08:34:27;99658.44;;;40.09;26.14
77299;BME280;66361;52.034;20.656;2023-09-12T08:38:30;99650.22;;;39.66;27.92
77299;BME280;66361;52.034;20.656;2023-09-12T08:42:39;99663.34;;;40.90;23.60
77299;BME280;66361;52.034;20.656;2023-09-12T08:46:45;99652.34;;;40.58;23.96
77299;BME280;66361;52.034;20.656;2023-09-12T08:50:49;99650.59;;;38.70;25.04
77299;BME280;66361;52.034;20.656;2023-09-12T08:54:52;99643.63;;;38.78;29.12
77299;BME280;66361;52.034;20.656;2023-09-12T08:58:56;99653.22;;;40.40;21.78
77299;BME280;66361;52.034;20.656;2023-09-12T09:03:01;99646.41;;;39.62;23.32
77299;BME280;66361;52.034;20.656;2023-09-12T09:07:06;99645.91;;;39.60;23.48
77299;BME280;66361;52.034;20.656;2023-09-12T09:11:10;99637.41;;;39.57;22.67
77299;BME280;66361;52.034;20.656;2023-09-12T09:15:24;99648.41;;;40.13;24.03
77299;BME280;66361;52.034;20.656;2023-09-12T09:19:43;99638.38;;;39.24;24.89
77299;BME280;66361;52.034;20.656;2023-09-12T09:23:47;99631.50;;;36.28;28.93
77299;BME280;66361;52.034;20.656;2023-09-12T09:27:50;99633.16;;;35.94;28.03
77299;BME280;66361;52.034;20.656;2023-09-12T09:31:53;99627.09;;;34.47;32.58
77299;BME280;66361;52.034;20.656;2023-09-12T09:36:05;99628.47;;;33.33;35.73
77299;BME280;66361;52.034;20.656;2023-09-12T09:40:09;99621.88;;;32.30;35.96
77299;BME280;66361;52.034;20.656;2023-09-12T09:44:13;99631.88;;;32.25;38.64
77299;BME280;66361;52.034;20.656;2023-09-12T09:48:20;99628.56;;;32.56;42.32
77299;BME280;66361;52.034;20.656;2023-09-12T09:52:26;99618.19;;;35.24;34.00
77299;BME280;66361;52.034;20.656;2023-09-12T09:56:29;99626.25;;;36.62;28.29
77299;BME280;66361;52.034;20.656;2023-09-12T10:00:34;99622.34;;;37.48;28.54
77299;BME280;66361;52.034;20.656;2023-09-12T10:04:40;99620.63;;;37.62;25.73
77299;BME280;66361;52.034;20.656;2023-09-12T10:08:51;99616.97;;;37.27;25.26
77299;BME280;66361;52.034;20.656;2023-09-12T10:12:57;99613.06;;;36.44;26.10
77299;BME280;66361;52.034;20.656;2023-09-12T10:17:01;99608.63;;;36.73;26.02
77299;BME280;66361;52.034;20.656;2023-09-12T10:21:11;99611.97;;;35.69;29.33
77299;BME280;66361;52.034;20.656;2023-09-12T10:25:20;99618.25;;;35.55;27.75
77299;BME280;66361;52.034;20.656;2023-09-12T10:29:24;99614.91;;;35.22;26.70
77299;BME280;66361;52.034;20.656;2023-09-12T10:33:28;99610.25;;;33.65;30.89
77299;BME280;66361;52.034;20.656;2023-09-12T10:37:35;99608.47;;;32.29;36.00
77299;BME280;66361;52.034;20.656;2023-09-12T10:41:43;99601.97;;;32.51;32.00
77299;BME280;66361;52.034;20.656;2023-09-12T10:45:48;99599.31;;;33.17;30.24
77299;BME280;66361;52.034;20.656;2023-09-12T10:49:52;99593.88;;;33.22;33.44
77299;BME280;66361;52.034;20.656;2023-09-12T10:53:56;99590.81;;;33.13;33.19
77299;BME280;66361;52.034;20.656;2023-09-12T10:58:05;99583.38;;;32.32;32.18
77299;BME280;66361;52.034;20.656;2023-09-12T11:02:30;99590.41;;;31.33;32.92
77299;BME280;66361;52.034;20.656;2023-09-12T11:06:34;99587.16;;;31.47;36.51
77299;BME280;66361;52.034;20.656;2023-09-12T11:10:36;99585.59;;;31.68;35.08
77299;BME280;66361;52.034;20.656;2023-09-12T11:15:04;99584.47;;;32.14;32.15
77299;BME280;66361;52.034;20.656;2023-09-12T11:19:15;99589.16;;;32.35;35.31
77299;BME280;66361;52.034;20.656;2023-09-12T11:23:18;99581.16;;;32.12;35.31
77299;BME280;66361;52.034;20.656;2023-09-12T11:27:22;99584.13;;;31.94;39.12
77299;BME280;66361;52.034;20.656;2023-09-12T11:31:27;99584.41;;;32.09;35.11
77299;BME280;66361;52.034;20.656;2023-09-12T11:35:36;99587.16;;;32.31;34.23
77299;BME280;66361;52.034;20.656;2023-09-12T11:39:39;99596.88;;;31.88;35.16
77299;BME280;66361;52.034;20.656;2023-09-12T11:43:42;99576.28;;;31.81;35.43
77299;BME280;66361;52.034;20.656;2023-09-12T11:47:47;99570.50;;;32.10;34.48
77299;BME280;66361;52.034;20.656;2023-09-12T11:51:52;99577.00;;;31.76;34.28
77299;BME280;66361;52.034;20.656;2023-09-12T11:55:57;99579.97;;;31.58;33.40
77299;BME280;66361;52.034;20.656;2023-09-12T12:00:03;99579.25;;;31.79;37.15
77299;BME280;66361;52.034;20.656;2023-09-12T12:04:11;99580.88;;;31.63;33.83
77299;BME280;66361;52.034;20.656;2023-09-12T12:08:17;99571.91;;;31.96;33.27
77299;BME280;66361;52.034;20.656;2023-09-12T12:12:23;99585.19;;;31.31;32.35
77299;BME280;66361;52.034;20.656;2023-09-12T12:16:27;99574.44;;;31.41;34.71
77299;BME280;66361;52.034;20.656;2023-09-12T12:20:31;99579.97;;;31.58;36.39
77299;BME280;66361;52.034;20.656;2023-09-12T12:24:38;99570.16;;;31.29;35.98
77299;BME280;66361;52.034;20.656;2023-09-12T12:28:41;99574.25;;;31.59;33.01
77299;BME280;66361;52.034;20.656;2023-09-12T12:32:47;99566.28;;;31.41;34.74
77299;BME280;66361;52.034;20.656;2023-09-12T12:36:53;99569.84;;;31.13;33.44
77299;BME280;66361;52.034;20.656;2023-09-12T12:40:59;99560.19;;;31.22;35.20
77299;BME280;66361;52.034;20.656;2023-09-12T12:45:05;99559.56;;;31.32;34.58
77299;BME280;66361;52.034;20.656;2023-09-12T12:49:15;99559.72;;;30.97;36.06
77299;BME280;66361;52.034;20.656;2023-09-12T12:53:36;99559.63;;;30.81;35.03
77299;BME280;66361;52.034;20.656;2023-09-12T12:57:53;99557.34;;;30.49;34.54
77299;BME280;66361;52.034;20.656;2023-09-12T13:01:56;99547.97;;;30.45;35.65
77299;BME280;66361;52.034;20.656;2023-09-12T13:05:59;99555.44;;;30.26;38.13
77299;BME280;66361;52.034;20.656;2023-09-12T13:10:07;99541.34;;;30.18;35.34
77299;BME280;66361;52.034;20.656;2023-09-12T13:14:13;99546.78;;;29.95;38.18
77299;BME280;66361;52.034;20.656;2023-09-12T13:18:16;99548.06;;;29.69;37.87
77299;BME280;66361;52.034;20.656;2023-09-12T13:22:19;99540.41;;;29.77;36.50
77299;BME280;66361;52.034;20.656;2023-09-12T13:26:24;99549.34;;;29.66;36.88
77299;BME280;66361;52.034;20.656;2023-09-12T13:30:27;99547.72;;;29.36;41.07
77299;BME280;66361;52.034;20.656;2023-09-12T13:34:30;99550.59;;;29.41;39.69
77299;BME280;66361;52.034;20.656;2023-09-12T13:38:33;99548.53;;;29.24;37.87
77299;BME280;66361;52.034;20.656;2023-09-12T13:42:38;99544.97;;;29.24;40.90
77299;BME280;66361;52.034;20.656;2023-09-12T13:46:41;99545.69;;;29.19;41.55
77299;BME280;66361;52.034;20.656;2023-09-12T13:50:46;99545.69;;;29.01;39.72
77299;BME280;66361;52.034;20.656;2023-09-12T13:54:49;99546.25;;;28.92;39.53
77299;BME280;66361;52.034;20.656;2023-09-12T13:58:54;99540.59;;;28.93;38.84
77299;BME280;66361;52.034;20.656;2023-09-12T14:02:57;99550.25;;;28.71;39.65
77299;BME280;66361;52.034;20.656;2023-09-12T14:07:00;99546.19;;;28.62;41.15
77299;BME280;66361;52.034;20.656;2023-09-12T14:11:04;99541.72;;;28.67;39.70
77299;BME280;66361;52.034;20.656;2023-09-12T14:15:21;99537.03;;;28.38;41.63
77299;BME280;66361;52.034;20.656;2023-09-12T14:19:24;99543.00;;;28.28;40.31
77299;BME280;66361;52.034;20.656;2023-09-12T14:23:28;99548.50;;;28.40;40.16
77299;BME280;66361;52.034;20.656;2023-09-12T14:27:32;99550.16;;;28.41;39.34
77299;BME280;66361;52.034;20.656;2023-09-12T14:31:36;99550.84;;;28.36;39.71
77299;BME280;66361;52.034;20.656;2023-09-12T14:35:40;99555.44;;;28.18;42.01
77299;BME280;66361;52.034;20.656;2023-09-12T14:39:44;99545.84;;;28.15;40.54
77299;BME280;66361;52.034;20.656;2023-09-12T14:43:48;99554.06;;;28.09;39.79
77299;BME280;66361;52.034;20.656;2023-09-12T14:47:52;99552.97;;;27.92;41.94
77299;BME280;66361;52.034;20.656;2023-09-12T14:51:57;99557.50;;;27.98;40.77
77299;BME280;66361;52.034;20.656;2023-09-12T14:56:03;99555.56;;;27.73;44.22
77299;BME280;66361;52.034;20.656;2023-09-12T15:00:06;99550.66;;;27.64;42.37
77299;BME280;66361;52.034;20.656;2023-09-12T15:04:11;99550.88;;;27.62;43.32
77299;BME280;66361;52.034;20.656;2023-09-12T15:08:14;99545.19;;;27.46;43.53
77299;BME280;66361;52.034;20.656;2023-09-12T15:12:20;99553.88;;;27.23;46.26
77299;BME280;66361;52.034;20.656;2023-09-12T15:16:24;99553.34;;;27.01;47.09
77299;BME280;66361;52.034;20.656;2023-09-12T15:20:29;99544.47;;;26.81;47.38
77299;BME280;66361;52.034;20.656;2023-09-12T15:24:32;99552.47;;;26.63;47.80
77299;BME280;66361;52.034;20.656;2023-09-12T15:28:39;99555.00;;;26.44;49.93
77299;BME280;66361;52.034;20.656;2023-09-12T15:32:42;99552.13;;;26.20;52.55
77299;BME280;66361;52.034;20.656;2023-09-12T15:36:47;99552.59;;;26.04;50.18
77299;BME280;66361;52.034;20.656;2023-09-12T15:40:51;99543.22;;;25.86;51.67
77299;BME280;66361;52.034;20.656;2023-09-12T15:44:59;99546.97;;;25.72;52.29
77299;BME280;66361;52.034;20.656;2023-09-12T15:49:04;99546.75;;;25.54;53.29
77299;BME280;66361;52.034;20.656;2023-09-12T15:53:09;99546.53;;;25.36;57.42
77299;BME280;66361;52.034;20.656;2023-09-12T15:57:12;99547.31;;;25.17;56.66
77299;BME280;66361;52.034;20.656;2023-09-12T16:01:15;99540.16;;;24.96;57.89
77299;BME280;66361;52.034;20.656;2023-09-12T16:05:19;99545.94;;;24.80;57.79
77299;BME280;66361;52.034;20.656;2023-09-12T16:09:24;99544.81;;;24.61;58.72
77299;BME280;66361;52.034;20.656;2023-09-12T16:13:27;99545.94;;;24.39;60.00
77299;BME280;66361;52.034;20.656;2023-09-12T16:17:31;99541.00;;;24.15;62.52
77299;BME280;66361;52.034;20.656;2023-09-12T16:21:35;99540.81;;;23.88;62.41
77299;BME280;66361;52.034;20.656;2023-09-12T16:25:40;99535.84;;;23.64;64.52
77299;BME280;66361;52.034;20.656;2023-09-12T16:29:43;99548.25;;;23.37;66.95
77299;BME280;66361;52.034;20.656;2023-09-12T16:33:46;99551.50;;;23.11;68.34
77299;BME280;66361;52.034;20.656;2023-09-12T16:37:50;99548.22;;;22.80;69.95
77299;BME280;66361;52.034;20.656;2023-09-12T16:41:55;99544.44;;;22.60;69.46
77299;BME280;66361;52.034;20.656;2023-09-12T16:45:58;99550.38;;;22.41;70.75
77299;BME280;66361;52.034;20.656;2023-09-12T16:50:01;99554.69;;;22.20;72.51
77299;BME280;66361;52.034;20.656;2023-09-12T16:54:05;99548.13;;;22.00;73.47
77299;BME280;66361;52.034;20.656;2023-09-12T16:58:11;99556.72;;;21.81;73.29
77299;BME280;66361;52.034;20.656;2023-09-12T17:02:14;99550.22;;;21.61;74.67
77299;BME280;66361;52.034;20.656;2023-09-12T17:06:17;99555.91;;;21.43;74.77
77299;BME280;66361;52.034;20.656;2023-09-12T17:10:20;99553.81;;;21.22;75.89
77299;BME280;66361;52.034;20.656;2023-09-12T17:14:25;99549.75;;;21.04;78.96
77299;BME280;66361;52.034;20.656;2023-09-12T17:18:32;99548.19;;;20.87;80.24
77299;BME280;66361;52.034;20.656;2023-09-12T17:22:36;99543.06;;;20.69;81.99
77299;BME280;66361;52.034;20.656;2023-09-12T17:26:40;99556.38;;;20.54;83.48
77299;BME280;66361;52.034;20.656;2023-09-12T17:30:45;99564.28;;;20.40;83.92
77299;BME280;66361;52.034;20.656;2023-09-12T17:34:49;99560.66;;;20.24;86.03
77299;BME280;66361;52.034;20.656;2023-09-12T17:38:53;99559.53;;;20.11;87.20
77299;BME280;66361;52.034;20.656;2023-09-12T17:42:58;99556.72;;;19.96;87.55
77299;BME280;66361;52.034;20.656;2023-09-12T17:47:03;99557.25;;;19.83;90.06
77299;BME280;66361;52.034;20.656;2023-09-12T17:51:08;99565.13;;;19.69;91.40
77299;BME280;66361;52.034;20.656;2023-09-12T17:55:12;99566.47;;;19.57;90.82
77299;BME280;66361;52.034;20.656;2023-09-12T17:59:15;99568.44;;;19.47;91.67
77299;BME280;66361;52.034;20.656;2023-09-12T18:03:19;99568.09;;;19.33;94.06
77299;BME280;66361;52.034;20.656;2023-09-12T18:07:22;99574.94;;;19.28;94.16
77299;BME280;66361;52.034;20.656;2023-09-12T18:11:29;99568.09;;;19.17;94.45
77299;BME280;66361;52.034;20.656;2023-09-12T18:15:33;99573.75;;;19.06;95.21
77299;BME280;66361;52.034;20.656;2023-09-12T18:19:37;99579.22;;;18.97;97.19
77299;BME280;66361;52.034;20.656;2023-09-12T18:23:40;99577.88;;;18.84;96.50
77299;BME280;66361;52.034;20.656;2023-09-12T18:27:45;99582.34;;;18.76;97.77
77299;BME280;66361;52.034;20.656;2023-09-12T18:31:48;99578.81;;;18.67;98.94
77299;BME280;66361;52.034;20.656;2023-09-12T18:35:54;99588.47;;;18.60;100.00
77299;BME280;66361;52.034;20.656;2023-09-12T18:39:56;99581.22;;;18.53;100.00
77299;BME280;66361;52.034;20.656;2023-09-12T18:44:00;99579.00;;;18.40;100.00
77299;BME280;66361;52.034;20.656;2023-09-12T18:48:04;99578.97;;;18.32;99.83
77299;BME280;66361;52.034;20.656;2023-09-12T18:52:08;99578.75;;;18.25;100.00
77299;BME280;66361;52.034;20.656;2023-09-12T18:56:11;99578.41;;;18.20;100.00
77299;BME280;66361;52.034;20.656;2023-09-12T19:00:15;99574.06;;;18.19;100.00
77299;BME280;66361;52.034;20.656;2023-09-12T19:04:22;99568.16;;;18.08;100.00
77299;BME280;66361;52.034;20.656;2023-09-12T19:08:27;99565.28;;;18.01;100.00
77299;BME280;66361;52.034;20.656;2023-09-12T19:12:31;99565.88;;;17.95;100.00
77299;BME280;66361;52.034;20.656;2023-09-12T19:16:34;99568.03;;;17.91;100.00
77299;BME280;66361;52.034;20.656;2023-09-12T19:20:38;99569.84;;;17.83;100.00
77299;BME280;66361;52.034;20.656;2023-09-12T19:24:43;99570.44;;;17.77;100.00
77299;BME280;66361;52.034;20.656;2023-09-12T19:28:46;99570.88;;;17.64;100.00
77299;BME280;66361;52.034;20.656;2023-09-12T19:32:49;99565.13;;;17.59;100.00
77299;BME280;66361;52.034;20.656;2023-09-12T19:36:52;99558.97;;;17.59;100.00
77299;BME280;66361;52.034;20.656;2023-09-12T19:40:57;99558.13;;;17.58;100.00
77299;BME280;66361;52.034;20.656;2023-09-12T19:45:00;99567.56;;;17.53;100.00
77299;BME280;66361;52.034;20.656;2023-09-12T19:49:03;99567.63;;;17.43;100.00
77299;BME280;66361;52.034;20.656;2023-09-12T19:53:06;99567.41;;;17.36;100.00
77299;BME280;66361;52.034;20.656;2023-09-12T19:57:12;99572.69;;;17.28;100.00
77299;BME280;66361;52.034;20.656;2023-09-12T20:01:16;99568.94;;;17.21;100.00
77299;BME280;66361;52.034;20.656;2023-09-12T20:05:19;99574.41;;;17.20;100.00
77299;BME280;66361;52.034;20.656;2023-09-12T20:09:23;99570.09;;;17.19;100.00
77299;BME280;66361;52.034;20.656;2023-09-12T20:13:28;99571.69;;;17.12;100.00
77299;BME280;66361;52.034;20.656;2023-09-12T20:17:31;99576.50;;;17.08;100.00
77299;BME280;66361;52.034;20.656;2023-09-12T20:21:34;99571.09;;;17.00;100.00
77299;BME280;66361;52.034;20.656;2023-09-12T20:25:38;99569.16;;;16.92;100.00
77299;BME280;66361;52.034;20.656;2023-09-12T20:29:43;99572.41;;;16.86;100.00
77299;BME280;66361;52.034;20.656;2023-09-12T20:33:46;99575.69;;;16.80;100.00
77299;BME280;66361;52.034;20.656;2023-09-12T20:37:50;99585.09;;;16.75;100.00
77299;BME280;66361;52.034;20.656;2023-09-12T20:41:54;99580.09;;;16.72;100.00
77299;BME280;66361;52.034;20.656;2023-09-12T20:45:59;99570.72;;;16.68;100.00
77299;BME280;66361;52.034;20.656;2023-09-12T20:50:02;99576.50;;;16.63;100.00
77299;BME280;66361;52.034;20.656;2023-09-12T20:54:08;99574.13;;;16.60;100.00
77299;BME280;66361;52.034;20.656;2023-09-12T20:58:14;99576.72;;;16.52;100.00
77299;BME280;66361;52.034;20.656;2023-09-12T21:02:20;99573.06;;;16.43;100.00
77299;BME280;66361;52.034;20.656;2023-09-12T21:06:24;99571.50;;;16.41;100.00
77299;BME280;66361;52.034;20.656;2023-09-12T21:10:26;99573.50;;;16.39;100.00